sensor_id;sensor_type;location;lat;lon;timestamp;pressure;altitude;pressure_sealevel;temperature
53412;BMP280;39307;52.870;13.660;2022-11-04T00:00:02;100016.09;;;7.35
53412;BMP280;39307;52.870;13.660;2022-11-04T00:02:29;100010.22;;;7.33
53412;BMP280;39307;52.870;13.660;2022-11-04T00:04:55;100011.75;;;7.42
53412;BMP280;39307;52.870;13.660;2022-11-04T00:07:21;100008.34;;;7.41
53412;BMP280;39307;52.870;13.660;2022-11-04T00:09:47;100006.91;;;7.39
53412;BMP280;39307;52.870;13.660;2022-11-04T00:12:13;100000.81;;;7.46
53412;BMP280;39307;52.870;13.660;2022-11-04T00:14:40;99995.88;;;7.51
53412;BMP280;39307;52.870;13.660;2022-11-04T00:17:10;100009.34;;;7.40
53412;BMP280;39307;52.870;13.660;2022-11-04T00:19:37;100009.28;;;7.34
53412;BMP280;39307;52.870;13.660;2022-11-04T00:22:03;100009.44;;;7.32
53412;BMP280;39307;52.870;13.660;2022-11-04T00:24:29;100005.13;;;7.39
53412;BMP280;39307;52.870;13.660;2022-11-04T00:26:56;100003.44;;;7.32
53412;BMP280;39307;52.870;13.660;2022-11-04T00:29:22;100003.13;;;7.27
53412;BMP280;39307;52.870;13.660;2022-11-04T00:31:49;99990.56;;;7.30
53412;BMP280;39307;52.870;13.660;2022-11-04T00:34:15;99992.13;;;7.25
53412;BMP280;39307;52.870;13.660;2022-11-04T00:36:41;99990.78;;;7.43
53412;BMP280;39307;52.870;13.660;2022-11-04T00:39:07;99983.81;;;7.21
53412;BMP280;39307;52.870;13.660;2022-11-04T00:41:34;99987.06;;;7.23
53412;BMP280;39307;52.870;13.660;2022-11-04T00:44:02;99987.59;;;7.33
53412;BMP280;39307;52.870;13.660;2022-11-04T00:46:30;99989.22;;;7.20
53412;BMP280;39307;52.870;13.660;2022-11-04T00:48:57;99982.50;;;7.11
53412;BMP280;39307;52.870;13.660;2022-11-04T00:51:23;99988.25;;;7.07
53412;BMP280;39307;52.870;13.660;2022-11-04T00:53:50;99981.06;;;7.23
53412;BMP280;39307;52.870;13.660;2022-11-04T00:56:16;99979.00;;;7.04
53412;BMP280;39307;52.870;13.660;2022-11-04T00:58:43;99979.88;;;6.97
53412;BMP280;39307;52.870;13.660;2022-11-04T01:01:14;99976.91;;;7.00
53412;BMP280;39307;52.870;13.660;2022-11-04T01:03:40;99979.69;;;6.98
53412;BMP280;39307;52.870;13.660;2022-11-04T01:06:07;99978.44;;;7.09
53412;BMP280;39307;52.870;13.660;2022-11-04T01:08:33;99975.31;;;7.13
53412;BMP280;39307;52.870;13.660;2022-11-04T01:11:07;99967.94;;;7.02
53412;BMP280;39307;52.870;13.660;2022-11-04T01:13:34;99970.00;;;7.21
53412;BMP280;39307;52.870;13.660;2022-11-04T01:16:02;99964.00;;;7.06
53412;BMP280;39307;52.870;13.660;2022-11-04T01:18:28;99961.75;;;7.03
53412;BMP280;39307;52.870;13.660;2022-11-04T01:21:00;99966.59;;;7.06
53412;BMP280;39307;52.870;13.660;2022-11-04T01:23:26;99962.47;;;6.97
53412;BMP280;39307;52.870;13.660;2022-11-04T01:25:52;99965.09;;;6.97
53412;BMP280;39307;52.870;13.660;2022-11-04T01:28:19;99958.94;;;6.90
53412;BMP280;39307;52.870;13.660;2022-11-04T01:30:45;99951.44;;;6.95
53412;BMP280;39307;52.870;13.660;2022-11-04T01:33:11;99952.22;;;6.96
53412;BMP280;39307;52.870;13.660;2022-11-04T01:35:37;99937.44;;;6.96
53412;BMP280;39307;52.870;13.660;2022-11-04T01:38:04;99931.50;;;7.02
53412;BMP280;39307;52.870;13.660;2022-11-04T01:40:36;99929.72;;;7.03
53412;BMP280;39307;52.870;13.660;2022-11-04T01:43:02;99927.03;;;6.96
53412;BMP280;39307;52.870;13.660;2022-11-04T01:45:28;99933.38;;;6.94
53412;BMP280;39307;52.870;13.660;2022-11-04T01:48:04;99934.72;;;6.90
53412;BMP280;39307;52.870;13.660;2022-11-04T01:50:33;99932.31;;;6.89
53412;BMP280;39307;52.870;13.660;2022-11-04T01:53:08;99931.50;;;6.88
53412;BMP280;39307;52.870;13.660;2022-11-04T01:55:46;99933.13;;;6.89
53412;BMP280;39307;52.870;13.660;2022-11-04T01:58:17;99934.09;;;6.88
53412;BMP280;39307;52.870;13.660;2022-11-04T02:00:45;99925.94;;;6.77
53412;BMP280;39307;52.870;13.660;2022-11-04T02:03:33;99923.59;;;6.82
53412;BMP280;39307;52.870;13.660;2022-11-04T02:05:59;99913.28;;;6.88
53412;BMP280;39307;52.870;13.660;2022-11-04T02:08:28;99915.06;;;6.88
53412;BMP280;39307;52.870;13.660;2022-11-04T02:10:59;99908.81;;;6.96
53412;BMP280;39307;52.870;13.660;2022-11-04T02:13:26;99900.47;;;7.01
53412;BMP280;39307;52.870;13.660;2022-11-04T02:22:35;99894.03;;;6.83
53412;BMP280;39307;52.870;13.660;2022-11-04T02:30:51;99903.97;;;6.79
53412;BMP280;39307;52.870;13.660;2022-11-04T02:33:22;99904.59;;;6.81
53412;BMP280;39307;52.870;13.660;2022-11-04T02:36:20;99901.19;;;6.81
53412;BMP280;39307;52.870;13.660;2022-11-04T02:38:51;99907.03;;;6.83
53412;BMP280;39307;52.870;13.660;2022-11-04T02:43:52;99909.88;;;6.88
53412;BMP280;39307;52.870;13.660;2022-11-04T02:49:09;99903.88;;;6.87
53412;BMP280;39307;52.870;13.660;2022-11-04T02:51:48;99898.13;;;7.20
53412;BMP280;39307;52.870;13.660;2022-11-04T02:54:26;99884.84;;;7.15
53412;BMP280;39307;52.870;13.660;2022-11-04T02:56:57;99884.84;;;7.15
53412;BMP280;39307;52.870;13.660;2022-11-04T02:59:38;99889.53;;;7.05
53412;BMP280;39307;52.870;13.660;2022-11-04T03:02:12;99889.63;;;6.97
53412;BMP280;39307;52.870;13.660;2022-11-04T03:04:44;99902.09;;;7.02
53412;BMP280;39307;52.870;13.660;2022-11-04T03:07:14;99906.22;;;6.96
53412;BMP280;39307;52.870;13.660;2022-11-04T03:09:47;99900.09;;;6.90
53412;BMP280;39307;52.870;13.660;2022-11-04T03:12:19;99904.16;;;6.92
53412;BMP280;39307;52.870;13.660;2022-11-04T03:14:51;99899.13;;;6.90
53412;BMP280;39307;52.870;13.660;2022-11-04T03:17:33;99893.91;;;6.90
53412;BMP280;39307;52.870;13.660;2022-11-04T03:20:04;99892.31;;;6.90
53412;BMP280;39307;52.870;13.660;2022-11-04T03:22:35;99886.47;;;6.88
53412;BMP280;39307;52.870;13.660;2022-11-04T03:25:04;99884.41;;;6.83
53412;BMP280;39307;52.870;13.660;2022-11-04T03:27:50;99877.34;;;6.91
53412;BMP280;39307;52.870;13.660;2022-11-04T03:30:22;99880.91;;;6.90
53412;BMP280;39307;52.870;13.660;2022-11-04T03:35:42;99885.13;;;6.91
53412;BMP280;39307;52.870;13.660;2022-11-04T03:38:09;99878.59;;;6.95
53412;BMP280;39307;52.870;13.660;2022-11-04T03:40:35;99877.16;;;6.93
53412;BMP280;39307;52.870;13.660;2022-11-04T03:43:03;99882.63;;;6.98
53412;BMP280;39307;52.870;13.660;2022-11-04T03:45:32;99876.25;;;7.00
53412;BMP280;39307;52.870;13.660;2022-11-04T03:47:59;99885.22;;;6.98
53412;BMP280;39307;52.870;13.660;2022-11-04T03:50:31;99891.22;;;6.84
53412;BMP280;39307;52.870;13.660;2022-11-04T03:52:58;99885.13;;;6.77
53412;BMP280;39307;52.870;13.660;2022-11-04T03:58:07;99893.28;;;6.74
53412;BMP280;39307;52.870;13.660;2022-11-04T04:00:40;99890.50;;;6.76
53412;BMP280;39307;52.870;13.660;2022-11-04T04:03:14;99886.00;;;6.84
53412;BMP280;39307;52.870;13.660;2022-11-04T04:05:54;99881.50;;;7.21
53412;BMP280;39307;52.870;13.660;2022-11-04T04:11:00;99885.91;;;7.06
53412;BMP280;39307;52.870;13.660;2022-11-04T04:14:00;99885.03;;;6.99
53412;BMP280;39307;52.870;13.660;2022-11-04T04:16:46;99881.56;;;7.07
53412;BMP280;39307;52.870;13.660;2022-11-04T04:19:19;99882.25;;;7.01
53412;BMP280;39307;52.870;13.660;2022-11-04T04:21:58;99893.31;;;6.89
53412;BMP280;39307;52.870;13.660;2022-11-04T04:24:32;99892.47;;;6.88
53412;BMP280;39307;52.870;13.660;2022-11-04T04:27:03;99893.22;;;6.82
53412;BMP280;39307;52.870;13.660;2022-11-04T04:29:29;99890.69;;;6.89
53412;BMP280;39307;52.870;13.660;2022-11-04T04:31:56;99882.97;;;6.95
53412;BMP280;39307;52.870;13.660;2022-11-04T04:34:29;99874.00;;;7.12
53412;BMP280;39307;52.870;13.660;2022-11-04T04:37:11;99890.88;;;7.01
53412;BMP280;39307;52.870;13.660;2022-11-04T04:39:42;99886.84;;;6.99
53412;BMP280;39307;52.870;13.660;2022-11-04T04:42:10;99888.00;;;6.96
53412;BMP280;39307;52.870;13.660;2022-11-04T04:44:36;99907.56;;;6.92
53412;BMP280;39307;52.870;13.660;2022-11-04T04:47:08;99905.75;;;6.93
53412;BMP280;39307;52.870;13.660;2022-11-04T04:49:35;99904.16;;;6.92
53412;BMP280;39307;52.870;13.660;2022-11-04T04:52:07;99897.06;;;7.00
53412;BMP280;39307;52.870;13.660;2022-11-04T04:54:33;99889.78;;;7.10
53412;BMP280;39307;52.870;13.660;2022-11-04T04:56:59;99891.97;;;7.07
53412;BMP280;39307;52.870;13.660;2022-11-04T04:59:25;99878.75;;;7.08
53412;BMP280;39307;52.870;13.660;2022-11-04T05:01:51;99886.84;;;7.13
53412;BMP280;39307;52.870;13.660;2022-11-04T05:04:18;99878.59;;;7.10
53412;BMP280;39307;52.870;13.660;2022-11-04T05:06:44;99887.91;;;7.04
53412;BMP280;39307;52.870;13.660;2022-11-04T05:09:10;99886.13;;;7.05
53412;BMP280;39307;52.870;13.660;2022-11-04T05:11:36;99884.38;;;7.26
53412;BMP280;39307;52.870;13.660;2022-11-04T05:14:03;99885.03;;;7.28
53412;BMP280;39307;52.870;13.660;2022-11-04T05:16:29;99875.84;;;7.32
53412;BMP280;39307;52.870;13.660;2022-11-04T05:18:55;99880.06;;;7.33
53412;BMP280;39307;52.870;13.660;2022-11-04T05:21:21;99879.97;;;7.41
53412;BMP280;39307;52.870;13.660;2022-11-04T05:23:47;99884.38;;;7.26
53412;BMP280;39307;52.870;13.660;2022-11-04T05:26:14;99888.72;;;7.19
53412;BMP280;39307;52.870;13.660;2022-11-04T05:28:40;99878.31;;;7.19
53412;BMP280;39307;52.870;13.660;2022-11-04T05:31:06;99882.88;;;7.17
53412;BMP280;39307;52.870;13.660;2022-11-04T05:33:33;99895.25;;;7.15
53412;BMP280;39307;52.870;13.660;2022-11-04T05:36:10;99896.44;;;7.13
53412;BMP280;39307;52.870;13.660;2022-11-04T05:38:36;99900.81;;;7.12
53412;BMP280;39307;52.870;13.660;2022-11-04T05:41:03;99900.22;;;7.10
53412;BMP280;39307;52.870;13.660;2022-11-04T05:43:30;99908.00;;;7.10
53412;BMP280;39307;52.870;13.660;2022-11-04T05:45:58;99904.69;;;7.16
53412;BMP280;39307;52.870;13.660;2022-11-04T05:48:24;99909.09;;;7.16
53412;BMP280;39307;52.870;13.660;2022-11-04T05:50:50;99903.69;;;7.17
53412;BMP280;39307;52.870;13.660;2022-11-04T05:53:17;99907.75;;;7.19
53412;BMP280;39307;52.870;13.660;2022-11-04T05:55:43;99906.94;;;7.19
53412;BMP280;39307;52.870;13.660;2022-11-04T05:58:09;99909.22;;;7.43
53412;BMP280;39307;52.870;13.660;2022-11-04T06:00:36;99913.31;;;7.31
53412;BMP280;39307;52.870;13.660;2022-11-04T06:03:02;99918.16;;;7.34
53412;BMP280;39307;52.870;13.660;2022-11-04T06:05:28;99936.38;;;7.34
53412;BMP280;39307;52.870;13.660;2022-11-04T06:07:56;99943.09;;;7.28
53412;BMP280;39307;52.870;13.660;2022-11-04T06:10:23;99944.53;;;7.31
53412;BMP280;39307;52.870;13.660;2022-11-04T06:12:50;99951.00;;;7.35
53412;BMP280;39307;52.870;13.660;2022-11-04T06:15:16;99935.53;;;7.47
53412;BMP280;39307;52.870;13.660;2022-11-04T06:17:42;99941.38;;;7.49
53412;BMP280;39307;52.870;13.660;2022-11-04T06:20:09;99941.66;;;7.40
53412;BMP280;39307;52.870;13.660;2022-11-04T06:22:35;99939.59;;;7.36
53412;BMP280;39307;52.870;13.660;2022-11-04T06:25:01;99933.13;;;7.32
53412;BMP280;39307;52.870;13.660;2022-11-04T06:27:27;99945.69;;;7.28
53412;BMP280;39307;52.870;13.660;2022-11-04T06:29:54;99947.50;;;7.28
53412;BMP280;39307;52.870;13.660;2022-11-04T06:32:20;99950.28;;;7.26
53412;BMP280;39307;52.870;13.660;2022-11-04T06:34:46;99947.94;;;7.31
53412;BMP280;39307;52.870;13.660;2022-11-04T06:37:12;99954.59;;;7.34
53412;BMP280;39307;52.870;13.660;2022-11-04T06:39:38;99959.81;;;7.34
53412;BMP280;39307;52.870;13.660;2022-11-04T06:42:05;99962.56;;;7.32
53412;BMP280;39307;52.870;13.660;2022-11-04T06:44:31;99968.59;;;7.33
53412;BMP280;39307;52.870;13.660;2022-11-04T06:46:57;99973.88;;;7.39
53412;BMP280;39307;52.870;13.660;2022-11-04T06:49:23;99970.47;;;7.39
53412;BMP280;39307;52.870;13.660;2022-11-04T06:51:50;99977.28;;;7.40
53412;BMP280;39307;52.870;13.660;2022-11-04T06:54:16;99978.13;;;7.40
53412;BMP280;39307;52.870;13.660;2022-11-04T06:56:43;99978.91;;;7.41
53412;BMP280;39307;52.870;13.660;2022-11-04T06:59:16;99995.16;;;7.43
53412;BMP280;39307;52.870;13.660;2022-11-04T07:01:43;99989.59;;;7.46
53412;BMP280;39307;52.870;13.660;2022-11-04T07:04:10;99986.63;;;7.48
53412;BMP280;39307;52.870;13.660;2022-11-04T07:06:36;99971.06;;;7.69
53412;BMP280;39307;52.870;13.660;2022-11-04T07:09:03;99967.66;;;7.69
53412;BMP280;39307;52.870;13.660;2022-11-04T07:11:31;99983.84;;;7.64
53412;BMP280;39307;52.870;13.660;2022-11-04T07:13:57;99992.47;;;7.65
53412;BMP280;39307;52.870;13.660;2022-11-04T07:16:24;99986.81;;;7.61
53412;BMP280;39307;52.870;13.660;2022-11-04T07:18:51;99985.81;;;7.62
53412;BMP280;39307;52.870;13.660;2022-11-04T07:21:18;99990.03;;;7.63
53412;BMP280;39307;52.870;13.660;2022-11-04T07:23:44;99983.91;;;7.71
53412;BMP280;39307;52.870;13.660;2022-11-04T07:26:11;99980.50;;;7.70
53412;BMP280;39307;52.870;13.660;2022-11-04T07:28:38;99985.44;;;7.79
53412;BMP280;39307;52.870;13.660;2022-11-04T07:31:05;99970.75;;;7.93
53412;BMP280;39307;52.870;13.660;2022-11-04T07:33:32;99974.28;;;7.85
53412;BMP280;39307;52.870;13.660;2022-11-04T07:36:03;99982.00;;;7.79
53412;BMP280;39307;52.870;13.660;2022-11-04T07:38:30;99982.63;;;7.81
53412;BMP280;39307;52.870;13.660;2022-11-04T07:40:57;99994.06;;;7.80
53412;BMP280;39307;52.870;13.660;2022-11-04T07:43:23;99989.22;;;7.77
53412;BMP280;39307;52.870;13.660;2022-11-04T07:46:06;99990.19;;;7.76
53412;BMP280;39307;52.870;13.660;2022-11-04T07:48:33;99996.66;;;7.80
53412;BMP280;39307;52.870;13.660;2022-11-04T07:51:00;99999.50;;;7.85
53412;BMP280;39307;52.870;13.660;2022-11-04T07:53:28;100000.59;;;7.90
53412;BMP280;39307;52.870;13.660;2022-11-04T07:55:54;100004.78;;;7.91
53412;BMP280;39307;52.870;13.660;2022-11-04T07:58:21;100004.25;;;7.96
53412;BMP280;39307;52.870;13.660;2022-11-04T08:00:49;100000.28;;;8.00
53412;BMP280;39307;52.870;13.660;2022-11-04T08:03:15;99990.13;;;8.05
53412;BMP280;39307;52.870;13.660;2022-11-04T08:05:41;99984.91;;;8.19
53412;BMP280;39307;52.870;13.660;2022-11-04T08:08:08;99974.94;;;8.43
53412;BMP280;39307;52.870;13.660;2022-11-04T08:10:34;99971.81;;;8.33
53412;BMP280;39307;52.870;13.660;2022-11-04T08:13:00;99978.75;;;8.26
53412;BMP280;39307;52.870;13.660;2022-11-04T08:15:26;99977.53;;;8.22
53412;BMP280;39307;52.870;13.660;2022-11-04T08:17:52;99981.56;;;8.25
53412;BMP280;39307;52.870;13.660;2022-11-04T08:20:19;99969.81;;;8.35
53412;BMP280;39307;52.870;13.660;2022-11-04T08:22:45;99960.69;;;8.45
53412;BMP280;39307;52.870;13.660;2022-11-04T08:25:11;99958.97;;;8.52
53412;BMP280;39307;52.870;13.660;2022-11-04T08:27:37;99951.38;;;8.57
53412;BMP280;39307;52.870;13.660;2022-11-04T08:30:04;99935.22;;;8.68
53412;BMP280;39307;52.870;13.660;2022-11-04T08:32:30;99932.81;;;8.73
53412;BMP280;39307;52.870;13.660;2022-11-04T08:34:56;99934.13;;;8.83
53412;BMP280;39307;52.870;13.660;2022-11-04T08:37:22;99944.41;;;8.91
53412;BMP280;39307;52.870;13.660;2022-11-04T08:39:49;99942.47;;;8.99
53412;BMP280;39307;52.870;13.660;2022-11-04T08:42:15;99947.97;;;9.11
53412;BMP280;39307;52.870;13.660;2022-11-04T08:44:41;99943.41;;;9.19
53412;BMP280;39307;52.870;13.660;2022-11-04T08:47:07;99949.06;;;9.29
53412;BMP280;39307;52.870;13.660;2022-11-04T08:49:38;99945.88;;;9.33
53412;BMP280;39307;52.870;13.660;2022-11-04T08:52:04;99943.13;;;9.41
53412;BMP280;39307;52.870;13.660;2022-11-04T08:54:30;99944.94;;;9.47
53412;BMP280;39307;52.870;13.660;2022-11-04T08:56:57;99948.59;;;9.52
53412;BMP280;39307;52.870;13.660;2022-11-04T08:59:23;99951.25;;;9.59
53412;BMP280;39307;52.870;13.660;2022-11-04T09:01:49;99956.91;;;9.69
53412;BMP280;39307;52.870;13.660;2022-11-04T09:04:15;99959.13;;;9.72
53412;BMP280;39307;52.870;13.660;2022-11-04T09:06:43;99956.13;;;9.75
53412;BMP280;39307;52.870;13.660;2022-11-04T09:09:13;99953.91;;;9.78
53412;BMP280;39307;52.870;13.660;2022-11-04T09:11:41;99961.59;;;9.79
53412;BMP280;39307;52.870;13.660;2022-11-04T09:14:08;99964.78;;;9.81
53412;BMP280;39307;52.870;13.660;2022-11-04T09:16:36;99969.84;;;9.83
53412;BMP280;39307;52.870;13.660;2022-11-04T09:19:03;99974.69;;;9.86
53412;BMP280;39307;52.870;13.660;2022-11-04T09:21:29;99996.03;;;9.89
53412;BMP280;39307;52.870;13.660;2022-11-04T09:23:55;99989.22;;;9.95
53412;BMP280;39307;52.870;13.660;2022-11-04T09:26:22;99995.84;;;9.97
53412;BMP280;39307;52.870;13.660;2022-11-04T09:28:58;99990.84;;;10.08
53412;BMP280;39307;52.870;13.660;2022-11-04T09:31:26;99988.88;;;10.10
53412;BMP280;39307;52.870;13.660;2022-11-04T09:33:53;99984.03;;;10.14
53412;BMP280;39307;52.870;13.660;2022-11-04T09:36:20;99965.13;;;10.25
53412;BMP280;39307;52.870;13.660;2022-11-04T09:38:46;99969.19;;;10.27
53412;BMP280;39307;52.870;13.660;2022-11-04T09:44:26;99955.13;;;10.35
53412;BMP280;39307;52.870;13.660;2022-11-04T09:46:59;99944.25;;;10.38
53412;BMP280;39307;52.870;13.660;2022-11-04T09:49:31;99948.69;;;10.43
53412;BMP280;39307;52.870;13.660;2022-11-04T09:52:02;99942.03;;;10.47
53412;BMP280;39307;52.870;13.660;2022-11-04T09:54:47;99941.88;;;10.55
53412;BMP280;39307;52.870;13.660;2022-11-04T09:57:17;99928.78;;;10.62
53412;BMP280;39307;52.870;13.660;2022-11-04T09:59:43;99927.75;;;10.63
53412;BMP280;39307;52.870;13.660;2022-11-04T10:04:46;99918.28;;;10.74
53412;BMP280;39307;52.870;13.660;2022-11-04T10:15:45;99932.97;;;10.95
53412;BMP280;39307;52.870;13.660;2022-11-04T10:21:38;99953.50;;;11.10
53412;BMP280;39307;52.870;13.660;2022-11-04T10:24:23;99952.69;;;11.16
53412;BMP280;39307;52.870;13.660;2022-11-04T10:27:14;99972.41;;;11.31
53412;BMP280;39307;52.870;13.660;2022-11-04T10:29:49;99981.09;;;11.25
53412;BMP280;39307;52.870;13.660;2022-11-04T10:32:27;99985.31;;;11.20
53412;BMP280;39307;52.870;13.660;2022-11-04T10:35:09;100000.63;;;11.29
53412;BMP280;39307;52.870;13.660;2022-11-04T10:37:40;100001.63;;;11.41
53412;BMP280;39307;52.870;13.660;2022-11-04T10:40:47;100005.66;;;11.44
53412;BMP280;39307;52.870;13.660;2022-11-04T10:43:26;99997.00;;;11.50
53412;BMP280;39307;52.870;13.660;2022-11-04T10:51:38;100000.03;;;11.47
53412;BMP280;39307;52.870;13.660;2022-11-04T10:54:07;100007.44;;;11.62
53412;BMP280;39307;52.870;13.660;2022-11-04T10:56:59;100000.75;;;11.66
53412;BMP280;39307;52.870;13.660;2022-11-04T10:59:31;100005.19;;;11.72
53412;BMP280;39307;52.870;13.660;2022-11-04T11:02:02;100006.78;;;11.73
53412;BMP280;39307;52.870;13.660;2022-11-04T11:04:31;100012.84;;;11.74
53412;BMP280;39307;52.870;13.660;2022-11-04T11:07:00;100003.31;;;11.79
53412;BMP280;39307;52.870;13.660;2022-11-04T11:09:29;99997.66;;;11.82
53412;BMP280;39307;52.870;13.660;2022-11-04T11:12:02;99999.50;;;11.82
53412;BMP280;39307;52.870;13.660;2022-11-04T11:14:35;100004.53;;;11.83
53412;BMP280;39307;52.870;13.660;2022-11-04T11:19:56;100006.16;;;11.78
53412;BMP280;39307;52.870;13.660;2022-11-04T11:22:42;100011.78;;;11.87
53412;BMP280;39307;52.870;13.660;2022-11-04T11:25:34;100019.66;;;11.81
53412;BMP280;39307;52.870;13.660;2022-11-04T11:28:19;100031.34;;;11.85
53412;BMP280;39307;52.870;13.660;2022-11-04T11:33:27;100025.94;;;11.80
53412;BMP280;39307;52.870;13.660;2022-11-04T11:36:05;100019.88;;;11.86
53412;BMP280;39307;52.870;13.660;2022-11-04T11:38:33;100017.25;;;11.86
53412;BMP280;39307;52.870;13.660;2022-11-04T11:41:11;100017.03;;;11.87
53412;BMP280;39307;52.870;13.660;2022-11-04T11:43:44;100016.63;;;11.84
53412;BMP280;39307;52.870;13.660;2022-11-04T11:46:12;100020.28;;;11.83
53412;BMP280;39307;52.870;13.660;2022-11-04T11:48:48;100023.28;;;11.86
53412;BMP280;39307;52.870;13.660;2022-11-04T11:51:24;100030.94;;;11.88
53412;BMP280;39307;52.870;13.660;2022-11-04T11:56:36;100043.28;;;11.81
53412;BMP280;39307;52.870;13.660;2022-11-04T11:59:14;100041.03;;;11.84
53412;BMP280;39307;52.870;13.660;2022-11-04T12:01:50;100041.06;;;11.78
53412;BMP280;39307;52.870;13.660;2022-11-04T12:04:19;100048.56;;;11.68
53412;BMP280;39307;52.870;13.660;2022-11-04T12:10:11;100059.22;;;11.73
53412;BMP280;39307;52.870;13.660;2022-11-04T12:15:44;100056.81;;;11.65
53412;BMP280;39307;52.870;13.660;2022-11-04T12:18:35;100066.31;;;11.60
53412;BMP280;39307;52.870;13.660;2022-11-04T12:24:04;100072.34;;;11.60
53412;BMP280;39307;52.870;13.660;2022-11-04T12:26:49;100065.91;;;11.63
53412;BMP280;39307;52.870;13.660;2022-11-04T12:29:42;100071.16;;;11.63
53412;BMP280;39307;52.870;13.660;2022-11-04T12:32:28;100069.94;;;11.59
53412;BMP280;39307;52.870;13.660;2022-11-04T12:35:19;100066.53;;;11.58
53412;BMP280;39307;52.870;13.660;2022-11-04T12:37:55;100062.88;;;11.59
53412;BMP280;39307;52.870;13.660;2022-11-04T12:40:30;100059.47;;;11.53
53412;BMP280;39307;52.870;13.660;2022-11-04T12:48:49;100066.13;;;11.49
53412;BMP280;39307;52.870;13.660;2022-11-04T12:51:40;100058.09;;;11.44
53412;BMP280;39307;52.870;13.660;2022-11-04T12:56:57;100076.81;;;11.34
53412;BMP280;39307;52.870;13.660;2022-11-04T12:59:43;100072.97;;;11.30
53412;BMP280;39307;52.870;13.660;2022-11-04T13:02:21;100078.59;;;11.27
53412;BMP280;39307;52.870;13.660;2022-11-04T13:05:07;100075.59;;;11.24
53412;BMP280;39307;52.870;13.660;2022-11-04T13:10:41;100076.78;;;11.22
53412;BMP280;39307;52.870;13.660;2022-11-04T13:13:12;100080.03;;;11.23
53412;BMP280;39307;52.870;13.660;2022-11-04T13:15:57;100092.09;;;11.24
53412;BMP280;39307;52.870;13.660;2022-11-04T13:18:27;100088.91;;;11.29
53412;BMP280;39307;52.870;13.660;2022-11-04T13:21:15;100088.09;;;11.28
53412;BMP280;39307;52.870;13.660;2022-11-04T13:24:31;100084.06;;;11.26
53412;BMP280;39307;52.870;13.660;2022-11-04T13:27:02;100088.91;;;11.29
53412;BMP280;39307;52.870;13.660;2022-11-04T13:29:30;100095.75;;;11.30
53412;BMP280;39307;52.870;13.660;2022-11-04T13:32:16;100085.09;;;11.25
53412;BMP280;39307;52.870;13.660;2022-11-04T13:37:23;100078.81;;;11.26
53412;BMP280;39307;52.870;13.660;2022-11-04T13:40:13;100069.34;;;11.25
53412;BMP280;39307;52.870;13.660;2022-11-04T13:43:21;100077.22;;;11.25
53412;BMP280;39307;52.870;13.660;2022-11-04T13:45:54;100074.16;;;11.22
53412;BMP280;39307;52.870;13.660;2022-11-04T13:48:26;100080.63;;;11.19
53412;BMP280;39307;52.870;13.660;2022-11-04T13:50:59;100092.72;;;11.14
53412;BMP280;39307;52.870;13.660;2022-11-04T13:53:41;100092.72;;;11.07
53412;BMP280;39307;52.870;13.660;2022-11-04T13:56:08;100097.53;;;10.97
53412;BMP280;39307;52.870;13.660;2022-11-04T13:58:35;100100.16;;;10.97
53412;BMP280;39307;52.870;13.660;2022-11-04T14:01:29;100098.53;;;10.96
53412;BMP280;39307;52.870;13.660;2022-11-04T14:04:23;100100.97;;;10.98
53412;BMP280;39307;52.870;13.660;2022-11-04T14:07:00;100097.13;;;11.00
53412;BMP280;39307;52.870;13.660;2022-11-04T14:14:38;100103.38;;;10.99
53412;BMP280;39307;52.870;13.660;2022-11-04T14:20:10;100092.09;;;10.99
53412;BMP280;39307;52.870;13.660;2022-11-04T14:22:49;100088.88;;;11.03
53412;BMP280;39307;52.870;13.660;2022-11-04T14:28:00;100095.75;;;10.98
53412;BMP280;39307;52.870;13.660;2022-11-04T14:35:47;100116.84;;;10.77
53412;BMP280;39307;52.870;13.660;2022-11-04T14:38:28;100125.50;;;10.78
53412;BMP280;39307;52.870;13.660;2022-11-04T14:42:15;100129.13;;;10.77
53412;BMP280;39307;52.870;13.660;2022-11-04T14:46:47;100128.34;;;10.83
53412;BMP280;39307;52.870;13.660;2022-11-04T14:49:44;100119.47;;;10.84
53412;BMP280;39307;52.870;13.660;2022-11-04T14:52:34;100129.94;;;10.84
53412;BMP280;39307;52.870;13.660;2022-11-04T14:55:15;100138.41;;;10.86
53412;BMP280;39307;52.870;13.660;2022-11-04T14:57:48;100134.78;;;10.87
53412;BMP280;39307;52.870;13.660;2022-11-04T15:00:36;100142.81;;;10.85
53412;BMP280;39307;52.870;13.660;2022-11-04T15:03:55;100141.44;;;10.83
53412;BMP280;39307;52.870;13.660;2022-11-04T15:06:01;100143.44;;;10.81
53412;BMP280;39307;52.870;13.660;2022-11-04T15:08:43;100147.06;;;10.80
53412;BMP280;39307;52.870;13.660;2022-11-04T15:13:42;100138.38;;;10.79
53412;BMP280;39307;52.870;13.660;2022-11-04T15:16:19;100137.19;;;10.82
53412;BMP280;39307;52.870;13.660;2022-11-04T15:18:46;100133.97;;;10.80
53412;BMP280;39307;52.870;13.660;2022-11-04T15:21:13;100127.09;;;10.79
53412;BMP280;39307;52.870;13.660;2022-11-04T15:23:47;100130.13;;;10.76
53412;BMP280;39307;52.870;13.660;2022-11-04T15:26:24;100129.53;;;10.74
53412;BMP280;39307;52.870;13.660;2022-11-04T15:28:51;100121.47;;;10.75
53412;BMP280;39307;52.870;13.660;2022-11-04T15:31:22;100129.72;;;10.72
53412;BMP280;39307;52.870;13.660;2022-11-04T15:33:53;100123.66;;;10.72
53412;BMP280;39307;52.870;13.660;2022-11-04T15:36:26;100129.50;;;10.67
53412;BMP280;39307;52.870;13.660;2022-11-04T15:41:39;100133.31;;;10.65
53412;BMP280;39307;52.870;13.660;2022-11-04T15:44:15;100126.25;;;10.59
53412;BMP280;39307;52.870;13.660;2022-11-04T15:46:48;100130.47;;;10.60
53412;BMP280;39307;52.870;13.660;2022-11-04T15:49:21;100136.72;;;10.59
53412;BMP280;39307;52.870;13.660;2022-11-04T15:51:53;100138.72;;;10.57
53412;BMP280;39307;52.870;13.660;2022-11-04T15:54:23;100145.34;;;10.53
53412;BMP280;39307;52.870;13.660;2022-11-04T15:56:52;100145.75;;;10.50
53412;BMP280;39307;52.870;13.660;2022-11-04T15:59:22;100152.59;;;10.51
53412;BMP280;39307;52.870;13.660;2022-11-04T16:01:51;100161.63;;;10.49
53412;BMP280;39307;52.870;13.660;2022-11-04T16:04:21;100160.03;;;10.48
53412;BMP280;39307;52.870;13.660;2022-11-04T16:07:04;100169.31;;;10.50